首页
METAR-TAF:

METAR-TAF

机场 :

埃森博阿国际机场

安卡拉埃森博阿, 土耳其

纬度: 40-07N, 经度: 032-59E, 海拔: 953米

当前天气观测

该预报发布于24分钟前的08:20 UTC
风速13节,风向东转东北,在北转东北之间变化
温度 24°C
湿度 25%
气压 1016 hPa
能见度10公里或以上
1500米以下无云,无积雨云

METAR: LTAC 140820Z 06013KT 020V100 CAVOK 24/03 Q1016 NOSIG

时间: 11:44 (08:44 UTC)

预报

该预报发布于4小时和4分钟前的04:40 UTC
预报有效从14日的 06点(UTC)到 15日的 06点(UTC)
风速9节,风向东北
能见度10公里或以上
1500米以下无云,无积雨云

TAF: LTAC 140440Z 1406/1506 05009KT CAVOK

超过4000个机场的气象观测和天气预报(METAR&TAF报告)。

可查询的气象台以黄色和红色小点在地图上表示。

将鼠标移到小点上方,可查看气象台名称。

然后点击查看天气观测和预报。

如需切换地图:点击带黑十字的绿色按钮放大地图;点击带横线的绿色按钮缩小地图;或者点击绿色箭头查看邻近地区的地图。


METAR-TAF: